Terminal Aerodrome Forecast
Issued by NWS

Home | Current Version | Previous Version | Text Only | Print | Product List | Glossary On
Versions: 1 2 3 4 5 6 7 8 9 10 11 12 13 14 15 16 17 18 19 20 21 22 23 24 25
000
FTUS41 KBUF 250545
TAFIAG
TAF
KIAG 250545Z 2506/2606 13012G20KT P6SM VCSH OVC080
     FM250900 11012KT 6SM -RA OVC040
     FM251200 09012KT 4SM -RA SCT015 OVC025
     FM251500 08012G22KT 4SM RA OVC007
     FM251900 08014G22KT P6SM VCSH OVC007
     FM252300 07010KT P6SM OVC007
     FM260300 07005KT 3SM BR OVC015=

USA.gov is the U.S. government's official web portal to all federal, state and local government web resources and services.